アイウン の空港の天気 - METARとTAF

アイウン/ハッサン空港 ( GMML / EUN ) - 西サハラ アイウン
飛行場実況気象(Metar)
観測時間02/18 00:00 CET (02/17 23:00 UTC)
風向・風速北北東 6m/s
視程8000m
天気現象
全天を覆う雲 雲底高度 400m
気温15℃
湿度94%
気圧1021hPa
METARGMML 172300Z 03011KT 8000 OVC013 15/14 Q1021 NOSIG
過去の天気等 Google飛行場航空写真 Wunderground天気予報

過去48時間のMETAR

飛行場予報(TAF)
発表時間: 2/17 18:00 CET (2/17 17:00 UTC)
予報対象時間: 17日19時 CET ~ 19日1時 CET
風向・風速北 8m/s
視程8000m
なし
TAF GMML 171700Z 1718/1824 01015KT 8000 NSC